createdAt,value
2022-09-07T00:00:57.778Z,5.99
2022-09-07T00:01:37.597Z,6.64
2022-09-07T00:02:24.594Z,7.36
2022-09-07T00:03:18.728Z,8.07
2022-09-07T00:04:12.603Z,6.81
2022-09-07T00:05:06.558Z,6.91
2022-09-07T00:06:02.560Z,6.61
2022-09-07T00:06:56.544Z,6.19
2022-09-07T00:07:43.580Z,6.44
2022-09-07T00:08:17.633Z,6.94
2022-09-07T00:09:04.551Z,7.66
2022-09-07T00:09:38.750Z,8.91
2022-09-07T00:10:25.568Z,9.26
2022-09-07T00:11:11.648Z,7.24
2022-09-07T00:11:58.539Z,6.66
2022-09-07T00:12:32.620Z,7.66
2022-09-07T00:13:14.598Z,7.29
2022-09-07T00:13:55.636Z,8.71
2022-09-07T00:14:35.584Z,8.61
2022-09-07T00:15:16.694Z,7.55
2022-09-07T00:15:57.623Z,8.02
2022-09-07T00:16:38.752Z,9.27
2022-09-07T00:17:18.553Z,8.96
2022-09-07T00:17:58.615Z,6.50
2022-09-07T00:18:43.680Z,7.54
2022-09-07T00:19:26.600Z,8.48
2022-09-07T00:20:07.539Z,7.82
2022-09-07T00:20:47.600Z,7.18
2022-09-07T00:21:28.576Z,7.01
2022-09-07T00:22:08.636Z,8.52
2022-09-07T00:22:48.542Z,8.19
2022-09-07T00:23:28.791Z,10.06
2022-09-07T00:24:09.591Z,10.68
2022-09-07T00:24:49.634Z,7.57
2022-09-07T00:25:31.947Z,7.19
2022-09-07T00:26:20.691Z,8.48
2022-09-07T00:27:03.552Z,7.68
2022-09-07T00:27:43.820Z,6.68
2022-09-07T00:28:24.635Z,6.80
2022-09-07T00:29:07.978Z,8.05
2022-09-07T00:29:48.641Z,8.60
2022-09-07T00:30:28.666Z,7.03
2022-09-07T00:31:09.580Z,8.20
2022-09-07T00:31:49.673Z,8.57
2022-09-07T00:32:29.534Z,8.21
2022-09-07T00:33:09.589Z,7.10
2022-09-07T00:33:50.515Z,7.91
2022-09-07T00:34:30.639Z,7.61
2022-09-07T00:35:11.570Z,7.72
2022-09-07T00:35:51.874Z,7.04
2022-09-07T00:36:32.575Z,7.45
2022-09-07T00:37:12.650Z,6.71
2022-09-07T00:37:52.528Z,6.26
2022-09-07T00:38:32.651Z,6.14
2022-09-07T00:39:13.537Z,6.22
2022-09-07T00:39:53.639Z,5.65
2022-09-07T00:40:34.536Z,6.11
2022-09-07T00:41:15.758Z,6.43
2022-09-07T00:41:55.537Z,5.96
2022-09-07T00:42:35.786Z,7.44
2022-09-07T00:43:23.540Z,7.89
2022-09-07T00:44:25.608Z,8.30
2022-09-07T00:45:14.522Z,7.85
2022-09-07T00:45:54.553Z,8.38
2022-09-07T00:46:36.491Z,9.06
2022-09-07T00:47:50.532Z,8.02
2022-09-07T00:48:25.585Z,8.01
2022-09-07T00:49:30.517Z,8.01
2022-09-07T00:50:10.621Z,8.45
2022-09-07T00:51:02.542Z,7.38
2022-09-07T00:51:43.644Z,7.47
2022-09-07T00:52:31.530Z,7.89
2022-09-07T00:53:29.650Z,6.25
2022-09-07T00:54:23.527Z,7.28
2022-09-07T00:55:06.739Z,7.63
2022-09-07T00:55:55.509Z,7.47
2022-09-07T00:56:40.546Z,8.24
2022-09-07T00:57:37.513Z,8.30
2022-09-07T00:58:34.501Z,7.90
2022-09-07T00:59:31.516Z,7.68
2022-09-07T01:00:25.518Z,8.11
2022-09-07T01:01:20.657Z,7.80
2022-09-07T01:02:01.611Z,7.84
2022-09-07T01:02:41.818Z,7.86
2022-09-07T01:03:42.513Z,6.44
2022-09-07T01:04:23.622Z,6.43
2022-09-07T01:05:13.505Z,7.64
2022-09-07T01:06:26.563Z,8.85
2022-09-07T01:07:07.546Z,8.84
2022-09-07T01:07:47.572Z,7.68
2022-09-07T01:08:28.530Z,7.81
2022-09-07T01:09:28.579Z,6.97
2022-09-07T01:10:09.493Z,7.19
2022-09-07T01:10:49.592Z,7.10
2022-09-07T01:11:30.496Z,6.04
2022-09-07T01:12:17.542Z,7.27
2022-09-07T01:13:14.513Z,6.65
2022-09-07T01:14:08.492Z,6.30
2022-09-07T01:15:05.505Z,6.11
2022-09-07T01:16:17.560Z,5.43
2022-09-07T01:17:47.509Z,6.77
2022-09-07T01:19:13.497Z,5.91
2022-09-07T01:20:40.506Z,5.31
2022-09-07T01:21:45.525Z,5.53
2022-09-07T01:22:48.526Z,6.07
2022-09-07T01:24:11.507Z,6.85
2022-09-07T01:25:36.488Z,7.16
2022-09-07T01:27:30.505Z,7.03
2022-09-07T01:28:28.592Z,6.90
2022-09-07T01:29:52.585Z,7.90
2022-09-07T01:30:34.507Z,7.06
2022-09-07T01:31:54.566Z,7.14
2022-09-07T01:33:11.492Z,6.90
2022-09-07T01:34:14.576Z,6.79
2022-09-07T01:34:50.621Z,6.39
2022-09-07T01:35:49.485Z,7.38
2022-09-07T01:36:40.566Z,7.85
2022-09-07T01:37:57.210Z,7.21
2022-09-07T01:38:54.595Z,6.54
2022-09-07T01:39:58.556Z,6.07
2022-09-07T01:41:05.629Z,6.19
2022-09-07T01:42:05.460Z,6.18
2022-09-07T01:42:55.573Z,6.19
2022-09-07T01:44:03.463Z,7.13
2022-09-07T01:45:09.545Z,7.25
2022-09-07T01:46:04.526Z,6.55
2022-09-07T01:47:19.486Z,7.65
2022-09-07T01:48:19.472Z,7.74
2022-09-07T01:49:51.470Z,8.39
2022-09-07T01:50:52.512Z,6.31
2022-09-07T01:51:38.521Z,5.56
2022-09-07T01:52:48.483Z,6.82
2022-09-07T01:53:48.587Z,6.44
2022-09-07T01:54:37.470Z,5.81
2022-09-07T01:55:29.537Z,6.19
2022-09-07T01:56:25.498Z,5.39
2022-09-07T01:57:15.563Z,5.86
2022-09-07T01:58:17.454Z,6.78
2022-09-07T01:59:12.544Z,5.90
2022-09-07T02:00:06.456Z,6.10
2022-09-07T02:00:53.791Z,6.59
2022-09-07T02:01:53.547Z,6.57
2022-09-07T02:02:46.565Z,6.01
2022-09-07T02:03:39.445Z,6.01
2022-09-07T02:04:34.528Z,7.66
2022-09-07T02:05:41.462Z,6.04
2022-09-07T02:06:46.564Z,5.84
2022-09-07T02:07:51.477Z,6.60
2022-09-07T02:08:40.522Z,7.04
2022-09-07T02:09:39.455Z,5.54
2022-09-07T02:10:25.556Z,6.13
2022-09-07T02:11:15.449Z,5.39
2022-09-07T02:11:55.529Z,5.66
2022-09-07T02:13:17.482Z,4.90
2022-09-07T02:14:14.652Z,5.80
2022-09-07T02:14:59.445Z,5.84
2022-09-07T02:16:20.551Z,4.56
2022-09-07T02:17:15.430Z,4.76
2022-09-07T02:18:00.592Z,4.68
2022-09-07T02:18:48.496Z,5.68
2022-09-07T02:19:31.508Z,5.72
2022-09-07T02:20:28.464Z,4.65
2022-09-07T02:21:09.508Z,4.36
2022-09-07T02:21:56.433Z,5.59
2022-09-07T02:22:40.544Z,5.29
2022-09-07T02:23:29.445Z,5.95
2022-09-07T02:24:33.447Z,5.88
2022-09-07T02:25:10.521Z,6.19
2022-09-07T02:26:06.426Z,5.76
2022-09-07T02:26:42.565Z,5.25
2022-09-07T02:27:52.445Z,4.97
2022-09-07T02:28:32.780Z,5.37
2022-09-07T02:29:19.431Z,4.86
2022-09-07T02:30:00.461Z,5.26
2022-09-07T02:30:54.454Z,5.89
2022-09-07T02:31:48.443Z,4.76
2022-09-07T02:32:42.465Z,6.07
2022-09-07T02:33:36.427Z,6.03
2022-09-07T02:34:30.462Z,4.09
2022-09-07T02:35:17.529Z,4.18
2022-09-07T02:35:52.536Z,4.15
2022-09-07T02:36:46.405Z,4.93
2022-09-07T02:37:21.484Z,4.53
2022-09-07T02:38:11.434Z,5.14
2022-09-07T02:38:45.500Z,4.71
2022-09-07T02:39:32.468Z,4.11
2022-09-07T02:40:06.988Z,3.75
2022-09-07T02:40:47.487Z,4.53
2022-09-07T02:41:44.524Z,5.15
2022-09-07T02:42:24.419Z,4.93
2022-09-07T02:43:10.497Z,4.59
2022-09-07T02:43:50.466Z,5.19
2022-09-07T02:44:35.524Z,5.20
2022-09-07T02:45:18.437Z,5.57
2022-09-07T02:46:56.463Z,4.74
2022-09-07T02:48:17.410Z,5.56
2022-09-07T02:49:39.420Z,6.68
2022-09-07T02:51:17.425Z,4.66
2022-09-07T02:52:32.457Z,4.78
2022-09-07T02:53:42.431Z,6.38
2022-09-07T02:55:23.420Z,6.63
2022-09-07T02:56:41.411Z,4.57
2022-09-07T02:58:33.461Z,5.50
2022-09-07T03:00:10.440Z,5.96
2022-09-07T03:01:42.551Z,5.39
2022-09-07T03:02:49.509Z,6.05
2022-09-07T03:04:15.464Z,5.95
2022-09-07T03:05:30.408Z,3.66
2022-09-07T03:06:40.448Z,4.46
2022-09-07T03:07:56.402Z,5.99
2022-09-07T03:09:02.385Z,5.60
2022-09-07T03:09:46.471Z,4.95
2022-09-07T03:10:26.482Z,5.31
2022-09-07T03:11:07.404Z,5.46
2022-09-07T03:11:47.455Z,5.51
2022-09-07T03:12:28.416Z,4.35
2022-09-07T03:13:08.501Z,4.35
2022-09-07T03:13:48.389Z,4.91
2022-09-07T03:14:33.720Z,5.60
2022-09-07T03:15:15.438Z,5.26
2022-09-07T03:15:56.357Z,4.45
2022-09-07T03:16:36.389Z,5.46
2022-09-07T03:17:17.597Z,4.93
2022-09-07T03:17:58.409Z,4.91
2022-09-07T03:18:39.477Z,4.54
2022-09-07T03:19:19.399Z,4.46
2022-09-07T03:19:59.470Z,5.06
2022-09-07T03:20:39.405Z,4.46
2022-09-07T03:21:19.458Z,3.99
2022-09-07T03:22:00.368Z,4.15
2022-09-07T03:22:40.481Z,5.21
2022-09-07T03:23:21.396Z,4.82
2022-09-07T03:24:01.465Z,5.01
2022-09-07T03:24:43.421Z,4.35
2022-09-07T03:25:24.459Z,6.14
2022-09-07T03:26:04.424Z,5.36
2022-09-07T03:26:50.507Z,3.94
2022-09-07T03:27:30.378Z,4.44
2022-09-07T03:28:10.482Z,4.53
2022-09-07T03:28:50.405Z,4.64
2022-09-07T03:29:30.513Z,4.25
2022-09-07T03:30:13.390Z,5.80
2022-09-07T03:30:53.480Z,5.55
2022-09-07T03:31:33.404Z,5.90
2022-09-07T03:32:13.434Z,5.11
2022-09-07T03:32:54.381Z,4.40
2022-09-07T03:33:34.486Z,5.34
2022-09-07T03:34:15.373Z,5.90
2022-09-07T03:34:55.471Z,6.13
2022-09-07T03:35:35.378Z,6.21
2022-09-07T03:36:15.482Z,5.57
2022-09-07T03:36:55.481Z,5.13
2022-09-07T03:37:36.464Z,5.91
2022-09-07T03:38:16.373Z,5.28
2022-09-07T03:38:56.500Z,4.56
2022-09-07T03:39:37.405Z,6.59
2022-09-07T03:40:20.436Z,5.65
2022-09-07T03:41:12.372Z,5.06
2022-09-07T03:41:52.659Z,4.53
2022-09-07T03:42:33.391Z,4.89
2022-09-07T03:43:13.472Z,5.14
2022-09-07T03:43:55.384Z,4.01
2022-09-07T03:44:35.492Z,5.01
2022-09-07T03:45:17.408Z,5.51
2022-09-07T03:45:57.502Z,5.00
2022-09-07T03:46:38.371Z,4.88
2022-09-07T03:47:18.482Z,3.74
2022-09-07T03:48:03.772Z,4.51
2022-09-07T03:48:45.572Z,6.05
2022-09-07T03:49:25.370Z,4.60
2022-09-07T03:50:05.460Z,4.16
2022-09-07T03:50:45.372Z,5.09
2022-09-07T03:51:25.436Z,4.97
2022-09-07T03:52:06.370Z,5.11
2022-09-07T03:52:46.413Z,5.51
2022-09-07T03:53:27.446Z,4.96
2022-09-07T03:54:07.482Z,5.19
2022-09-07T03:54:47.345Z,4.24
2022-09-07T03:55:27.439Z,4.85
2022-09-07T03:56:12.365Z,6.49
2022-09-07T03:56:52.428Z,5.41
2022-09-07T03:57:33.359Z,5.80
2022-09-07T03:58:13.412Z,6.63
2022-09-07T03:58:55.395Z,4.86
2022-09-07T03:59:35.421Z,4.43
2022-09-07T04:00:16.340Z,4.60
2022-09-07T04:00:56.611Z,5.64
2022-09-07T04:01:36.400Z,5.70
2022-09-07T04:02:16.498Z,5.84
2022-09-07T04:02:56.405Z,5.91
2022-09-07T04:03:36.462Z,4.78
2022-09-07T04:04:17.391Z,4.91
2022-09-07T04:04:57.521Z,4.30
2022-09-07T04:05:39.365Z,5.30
2022-09-07T04:06:20.499Z,5.20
2022-09-07T04:07:01.341Z,4.76
2022-09-07T04:07:41.412Z,5.60
2022-09-07T04:08:22.334Z,4.55
2022-09-07T04:09:02.572Z,4.15
2022-09-07T04:09:43.375Z,4.80
2022-09-07T04:10:23.410Z,5.04
2022-09-07T04:11:05.344Z,4.74
2022-09-07T04:11:45.412Z,5.05
2022-09-07T04:12:25.332Z,4.70
2022-09-07T04:13:05.422Z,4.80
2022-09-07T04:13:46.349Z,5.89
2022-09-07T04:14:26.428Z,8.20
2022-09-07T04:15:07.361Z,4.95
2022-09-07T04:15:50.945Z,5.28
2022-09-07T04:16:34.381Z,5.18
2022-09-07T04:17:14.512Z,4.74
2022-09-07T04:17:55.334Z,5.79
2022-09-07T04:18:35.415Z,6.04
2022-09-07T04:19:15.329Z,5.79
2022-09-07T04:19:56.048Z,6.80
2022-09-07T04:20:38.357Z,6.19
2022-09-07T04:21:19.412Z,6.45
2022-09-07T04:22:00.349Z,5.81
2022-09-07T04:22:40.419Z,5.22
2022-09-07T04:23:21.329Z,5.21
2022-09-07T04:24:02.421Z,5.59
2022-09-07T04:24:42.323Z,4.68
2022-09-07T04:25:23.409Z,5.45
2022-09-07T04:26:04.356Z,6.43
2022-09-07T04:26:44.441Z,5.31
2022-09-07T04:27:25.325Z,6.20
2022-09-07T04:28:05.368Z,6.40
2022-09-07T04:28:45.398Z,4.85
2022-09-07T04:29:25.452Z,5.90
2022-09-07T04:30:05.320Z,6.90
2022-09-07T04:30:45.446Z,6.06
2022-09-07T04:31:26.413Z,5.39
2022-09-07T04:32:06.386Z,4.24
2022-09-07T04:32:46.314Z,4.35
2022-09-07T04:33:26.401Z,4.50
2022-09-07T04:34:07.307Z,4.81
2022-09-07T04:34:47.409Z,4.68
2022-09-07T04:35:27.317Z,5.54
2022-09-07T04:36:08.419Z,5.05
2022-09-07T04:36:49.358Z,6.46
2022-09-07T04:37:29.508Z,5.53
2022-09-07T04:38:10.309Z,5.30
2022-09-07T04:38:51.416Z,5.40
2022-09-07T04:39:32.328Z,4.97
2022-09-07T04:40:12.436Z,4.96
2022-09-07T04:40:52.305Z,5.32
2022-09-07T04:41:33.492Z,5.57
2022-09-07T04:42:14.441Z,5.45
2022-09-07T04:42:54.374Z,4.84
2022-09-07T04:43:36.311Z,5.01
2022-09-07T04:44:17.386Z,5.78
2022-09-07T04:44:57.310Z,5.80
2022-09-07T04:45:38.422Z,5.82
2022-09-07T04:46:29.348Z,5.20
2022-09-07T04:47:09.409Z,5.63
2022-09-07T04:47:55.329Z,5.26
2022-09-07T04:48:35.426Z,4.50
2022-09-07T04:49:17.311Z,4.82
2022-09-07T04:50:00.404Z,5.36
2022-09-07T04:50:41.297Z,5.43
2022-09-07T04:51:21.368Z,4.38
2022-09-07T04:52:01.299Z,4.55
2022-09-07T04:52:41.366Z,5.50
2022-09-07T04:53:22.327Z,5.24
2022-09-07T04:54:04.410Z,4.56
2022-09-07T04:54:45.327Z,4.95
2022-09-07T04:55:25.420Z,4.16
2022-09-07T04:56:06.345Z,4.31
2022-09-07T04:56:46.398Z,5.04
2022-09-07T04:57:30.324Z,6.43
2022-09-07T04:58:10.405Z,6.01
2022-09-07T04:58:52.327Z,5.64
2022-09-07T04:59:32.426Z,5.89
2022-09-07T05:00:15.320Z,6.01
2022-09-07T05:00:55.449Z,6.22
2022-09-07T05:01:36.362Z,7.13
2022-09-07T05:02:16.441Z,4.31
2022-09-07T05:02:56.306Z,6.07
2022-09-07T05:03:37.381Z,5.85
2022-09-07T05:04:18.340Z,5.28
2022-09-07T05:05:02.072Z,4.71
2022-09-07T05:05:45.325Z,4.34
2022-09-07T05:06:26.365Z,5.54
2022-09-07T05:07:06.308Z,5.24
2022-09-07T05:07:46.392Z,4.84
2022-09-07T05:08:26.398Z,6.29
2022-09-07T05:09:07.389Z,6.20
2022-09-07T05:09:48.345Z,6.07
2022-09-07T05:10:28.388Z,5.28
2022-09-07T05:11:08.303Z,4.35
2022-09-07T05:11:48.623Z,4.40
2022-09-07T05:12:28.277Z,5.38
2022-09-07T05:13:08.370Z,5.32
2022-09-07T05:13:49.289Z,4.94
2022-09-07T05:14:29.365Z,4.81
2022-09-07T05:15:11.356Z,4.45
2022-09-07T05:15:51.345Z,5.65
2022-09-07T05:16:32.413Z,7.32
2022-09-07T05:17:14.460Z,6.56
2022-09-07T05:17:56.289Z,5.69
2022-09-07T05:18:51.298Z,6.09
2022-09-07T05:19:45.277Z,6.75
2022-09-07T05:20:32.312Z,9.00
2022-09-07T05:21:19.436Z,6.85
2022-09-07T05:22:14.285Z,5.97
2022-09-07T05:22:48.344Z,5.53
2022-09-07T05:23:35.300Z,6.75
2022-09-07T05:24:09.402Z,6.60
2022-09-07T05:24:56.293Z,5.96
2022-09-07T05:25:33.609Z,4.30
2022-09-07T05:26:15.420Z,6.34
2022-09-07T05:26:55.360Z,6.24
2022-09-07T05:27:35.320Z,6.01
2022-09-07T05:28:19.392Z,6.14
2022-09-07T05:31:41.296Z,5.35
2022-09-07T05:32:15.412Z,7.22
2022-09-07T05:33:03.264Z,7.65
2022-09-07T05:34:44.285Z,6.51
2022-09-07T05:35:21.437Z,7.94
2022-09-07T05:36:13.260Z,8.36
2022-09-07T05:36:54.300Z,6.41
2022-09-07T05:37:48.283Z,6.24
2022-09-07T05:38:43.268Z,6.35
2022-09-07T05:39:37.328Z,6.78
2022-09-07T05:40:31.265Z,5.86
2022-09-07T05:41:34.288Z,6.14
2022-09-07T05:42:15.394Z,6.57
2022-09-07T05:42:55.345Z,6.64
2022-09-07T05:44:45.606Z,7.22
2022-09-07T05:45:26.582Z,6.63
2022-09-07T05:46:07.424Z,7.11
2022-09-07T05:46:48.277Z,7.57
2022-09-07T05:47:35.281Z,7.11
2022-09-07T05:48:29.385Z,7.22
2022-09-07T05:49:23.309Z,7.46
2022-09-07T05:50:20.276Z,5.82
2022-09-07T05:51:21.262Z,4.79
2022-09-07T05:52:15.278Z,6.43
2022-09-07T05:52:56.279Z,7.80
2022-09-07T05:53:36.367Z,10.00
2022-09-07T05:54:18.265Z,8.45
2022-09-07T05:55:07.720Z,4.24
2022-09-07T05:55:54.272Z,6.19
2022-09-07T05:56:34.342Z,6.96
2022-09-07T05:57:19.258Z,4.40
2022-09-07T05:58:06.321Z,5.06
2022-09-07T05:59:03.246Z,5.47
2022-09-07T05:59:57.265Z,6.18
2022-09-07T06:00:51.279Z,5.26
2022-09-07T06:01:45.283Z,5.32
2022-09-07T06:02:39.969Z,5.96
2022-09-07T06:03:27.361Z,6.14
2022-09-07T06:04:01.306Z,6.41
2022-09-07T06:04:49.253Z,7.47
2022-09-07T06:05:23.316Z,8.19
2022-09-07T06:06:23.263Z,7.13
2022-09-07T06:08:04.242Z,6.39
2022-09-07T06:08:46.287Z,5.75
2022-09-07T06:10:54.247Z,7.04
2022-09-07T06:11:48.238Z,7.61
2022-09-07T06:12:44.464Z,7.09
2022-09-07T06:13:42.273Z,7.63
2022-09-07T06:14:23.322Z,6.28
2022-09-07T06:15:04.865Z,5.72
2022-09-07T06:15:45.237Z,6.85
2022-09-07T06:16:26.429Z,8.07
2022-09-07T06:17:07.219Z,7.13
2022-09-07T06:17:47.289Z,6.34
2022-09-07T06:18:27.245Z,7.21
2022-09-07T06:19:12.311Z,5.89
2022-09-07T06:19:52.261Z,6.19
2022-09-07T06:20:32.304Z,7.11
2022-09-07T06:21:25.224Z,6.65
2022-09-07T06:22:21.261Z,6.00
2022-09-07T06:23:15.220Z,7.79
2022-09-07T06:24:09.254Z,7.19
2022-09-07T06:25:03.254Z,6.80
2022-09-07T06:26:03.230Z,9.13
2022-09-07T06:26:57.263Z,6.46
2022-09-07T06:27:51.261Z,6.57
2022-09-07T06:28:57.928Z,7.55
2022-09-07T06:29:52.214Z,8.29
2022-09-07T06:30:33.245Z,8.82
2022-09-07T06:31:23.636Z,7.46
2022-09-07T06:33:17.072Z,7.63
2022-09-07T06:34:04.216Z,8.29
2022-09-07T06:34:44.314Z,7.51
2022-09-07T06:35:25.217Z,7.04
2022-09-07T06:36:08.249Z,7.38
2022-09-07T06:36:42.298Z,7.56
2022-09-07T06:37:29.213Z,5.41
2022-09-07T06:38:03.298Z,6.91
2022-09-07T06:38:51.225Z,7.91
2022-09-07T06:39:25.473Z,8.52
2022-09-07T06:40:14.289Z,8.49
2022-09-07T06:40:48.784Z,6.66
2022-09-07T06:42:35.360Z,6.84
2022-09-07T06:43:16.213Z,6.54
2022-09-07T06:43:56.337Z,6.40
2022-09-07T06:44:38.198Z,7.00
2022-09-07T06:45:21.303Z,5.91
2022-09-07T06:47:40.320Z,7.45
2022-09-07T06:48:28.336Z,6.03
2022-09-07T06:49:02.333Z,5.51
2022-09-07T06:49:49.194Z,5.65
2022-09-07T06:50:23.296Z,6.50
2022-09-07T06:51:16.196Z,6.18
2022-09-07T06:51:50.309Z,6.49
2022-09-07T06:53:41.664Z,5.81
2022-09-07T06:55:28.304Z,10.02
2022-09-07T06:56:12.235Z,9.71
2022-09-07T06:56:52.306Z,7.80
2022-09-07T06:57:33.377Z,7.78
2022-09-07T06:58:13.322Z,6.96
2022-09-07T06:58:54.218Z,7.00
2022-09-07T06:59:34.347Z,7.28
2022-09-07T07:00:16.211Z,8.63
2022-09-07T07:00:56.592Z,9.27
2022-09-07T07:01:39.245Z,8.38
2022-09-07T07:02:19.562Z,7.94
2022-09-07T07:03:00.350Z,6.70
2022-09-07T07:03:40.403Z,7.01
2022-09-07T07:04:21.177Z,5.25
2022-09-07T07:05:01.263Z,5.44
2022-09-07T07:05:41.195Z,6.94
2022-09-07T07:06:23.376Z,6.03
2022-09-07T07:07:04.212Z,5.89
2022-09-07T07:07:57.245Z,5.78
2022-09-07T07:09:45.334Z,7.35
2022-09-07T07:10:25.336Z,9.52
2022-09-07T07:11:11.290Z,7.96
2022-09-07T07:11:54.204Z,5.46
2022-09-07T07:14:04.217Z,5.14
2022-09-07T07:14:58.188Z,6.29
2022-09-07T07:15:52.195Z,8.10
2022-09-07T07:16:46.197Z,10.77
2022-09-07T07:17:40.201Z,7.31
2022-09-07T07:18:34.401Z,7.09
2022-09-07T07:19:21.219Z,5.88
2022-09-07T07:19:55.276Z,5.56
2022-09-07T07:20:44.196Z,5.76
2022-09-07T07:21:21.230Z,6.76
2022-09-07T07:23:03.172Z,5.64
2022-09-07T07:23:37.313Z,7.38
2022-09-07T07:24:10.930Z,7.24
2022-09-07T07:24:52.233Z,6.19
2022-09-07T07:25:26.357Z,6.43
2022-09-07T07:26:26.815Z,7.54
2022-09-07T07:27:07.181Z,7.82
2022-09-07T07:27:42.295Z,9.11
2022-09-07T07:29:18.712Z,6.79
2022-09-07T07:30:00.206Z,6.13
2022-09-07T07:30:33.904Z,6.25
2022-09-07T07:31:21.201Z,6.71
2022-09-07T07:31:54.932Z,6.94
2022-09-07T07:32:42.167Z,7.09
2022-09-07T07:33:15.996Z,7.29
2022-09-07T07:34:04.170Z,6.03
2022-09-07T07:34:37.888Z,5.75
2022-09-07T07:35:26.238Z,4.94
2022-09-07T07:36:22.703Z,6.49
2022-09-07T07:37:10.114Z,7.76
2022-09-07T07:37:43.850Z,6.57
2022-09-07T07:40:34.181Z,7.39
2022-09-07T07:42:19.105Z,7.74
2022-09-07T07:43:01.388Z,8.26
2022-09-07T07:44:04.550Z,7.36
2022-09-07T07:44:45.272Z,4.60
2022-09-07T07:46:29.232Z,7.01
2022-09-07T07:47:09.185Z,5.59
2022-09-07T07:47:50.084Z,5.11
2022-09-07T07:48:31.097Z,5.71
2022-09-07T07:49:11.150Z,6.03
2022-09-07T07:50:30.591Z,5.54
2022-09-07T07:50:52.129Z,5.93
2022-09-07T07:54:08.109Z,5.82
2022-09-07T07:55:42.428Z,6.82
2022-09-07T07:56:17.105Z,8.57
2022-09-07T07:57:04.310Z,7.85
2022-09-07T07:57:39.209Z,6.47
2022-09-07T07:58:27.129Z,7.15
2022-09-07T07:59:01.605Z,7.61
2022-09-07T07:59:49.084Z,8.10
2022-09-07T08:00:37.417Z,7.05
2022-09-07T08:01:30.133Z,7.07
2022-09-07T08:02:11.219Z,6.55
2022-09-07T08:03:05.103Z,6.45
2022-09-07T08:04:00.134Z,6.47
2022-09-07T08:04:54.115Z,7.32
2022-09-07T08:05:51.132Z,5.86
2022-09-07T08:06:45.090Z,5.51
2022-09-07T08:07:32.145Z,7.32
2022-09-07T08:08:06.195Z,8.65
2022-09-07T08:08:54.097Z,6.55
2022-09-07T08:09:28.155Z,5.95
2022-09-07T08:10:18.110Z,6.46
2022-09-07T08:10:52.286Z,7.29
2022-09-07T08:11:41.118Z,6.49
2022-09-07T08:12:17.224Z,6.47
2022-09-07T08:12:58.129Z,6.54
2022-09-07T08:13:56.081Z,7.38
2022-09-07T08:14:50.099Z,5.75
2022-09-07T08:15:44.096Z,6.26
2022-09-07T08:16:38.128Z,6.71
2022-09-07T08:17:32.122Z,7.45
2022-09-07T08:18:21.165Z,7.74
2022-09-07T08:18:55.217Z,5.79
2022-09-07T08:19:42.093Z,7.21
2022-09-07T08:20:16.205Z,8.84
2022-09-07T08:21:12.094Z,6.61
2022-09-07T08:21:46.187Z,6.57
2022-09-07T08:22:34.940Z,5.66
2022-09-07T08:23:09.529Z,7.19
2022-09-07T08:23:50.140Z,6.43
2022-09-07T08:24:30.212Z,4.47
2022-09-07T08:25:11.146Z,4.93
2022-09-07T08:26:00.412Z,7.05
2022-09-07T08:26:41.151Z,6.07
2022-09-07T08:27:25.686Z,6.01
2022-09-07T08:28:08.065Z,5.94
2022-09-07T08:28:49.315Z,7.65
2022-09-07T08:29:33.533Z,7.66
2022-09-07T08:30:17.149Z,5.99
2022-09-07T08:30:58.101Z,5.88
2022-09-07T08:31:38.191Z,5.25
2022-09-07T08:32:18.082Z,5.84
2022-09-07T08:32:58.189Z,6.90
2022-09-07T08:33:38.094Z,4.89
2022-09-07T08:34:18.181Z,5.45
2022-09-07T08:34:58.117Z,7.30
2022-09-07T08:35:38.131Z,5.76
2022-09-07T08:36:25.076Z,5.94
2022-09-07T08:37:05.352Z,6.29
2022-09-07T08:37:45.066Z,6.35
2022-09-07T08:38:25.249Z,6.86
2022-09-07T08:39:06.073Z,6.01
2022-09-07T08:39:46.288Z,5.09
2022-09-07T08:40:27.091Z,5.81
2022-09-07T08:41:08.137Z,6.57
2022-09-07T08:42:10.066Z,5.45
2022-09-07T08:43:44.830Z,5.66
2022-09-07T08:45:07.054Z,6.13
2022-09-07T08:45:52.090Z,5.94
2022-09-07T08:46:47.207Z,5.19
2022-09-07T08:47:44.054Z,6.82
2022-09-07T08:48:22.110Z,6.72
2022-09-07T08:49:12.087Z,5.85
2022-09-07T08:50:25.197Z,6.51
2022-09-07T08:51:31.090Z,6.03
2022-09-07T08:52:12.168Z,6.78
2022-09-07T08:53:08.054Z,7.50
2022-09-07T08:53:50.169Z,6.31
2022-09-07T08:54:37.035Z,8.99
2022-09-07T08:55:34.169Z,9.85
2022-09-07T08:56:37.642Z,9.09
2022-09-07T08:57:23.204Z,5.13
2022-09-07T08:58:54.053Z,6.63
2022-09-07T08:59:56.141Z,6.07
2022-09-07T09:00:38.056Z,4.39
2022-09-07T09:01:37.029Z,4.46
2022-09-07T09:02:30.039Z,5.04
2022-09-07T09:04:33.835Z,7.32
2022-09-07T09:05:16.563Z,7.13
2022-09-07T09:06:38.200Z,5.93
2022-09-07T09:07:13.661Z,6.21
2022-09-07T09:08:20.085Z,5.29
2022-09-07T09:09:37.669Z,6.80
2022-09-07T09:10:56.064Z,6.76
2022-09-07T09:12:15.123Z,5.59
2022-09-07T09:13:25.137Z,5.89
2022-09-07T09:14:46.111Z,5.74
2022-09-07T09:15:51.102Z,6.59
2022-09-07T09:16:45.189Z,6.21
2022-09-07T09:18:03.047Z,7.50
2022-09-07T09:19:43.071Z,5.68
2022-09-07T09:20:29.113Z,5.43
2022-09-07T09:21:22.018Z,5.76
2022-09-07T09:21:56.125Z,6.28
2022-09-07T09:22:43.074Z,5.25
2022-09-07T09:23:23.120Z,5.00
2022-09-07T09:24:23.063Z,6.50
2022-09-07T09:25:26.093Z,6.10
2022-09-07T09:26:42.095Z,5.69
2022-09-07T09:27:36.025Z,6.10
2022-09-07T09:28:34.325Z,6.88
2022-09-07T09:29:33.049Z,6.04
2022-09-07T09:30:35.072Z,5.68
2022-09-07T09:31:42.139Z,5.06
2022-09-07T09:32:57.023Z,5.68
2022-09-07T09:33:52.006Z,5.04
2022-09-07T09:34:49.034Z,3.59
2022-09-07T09:35:49.058Z,4.63
2022-09-07T09:37:09.450Z,4.64
2022-09-07T09:38:05.014Z,4.84
2022-09-07T09:38:59.018Z,4.70
2022-09-07T09:39:55.437Z,4.18
2022-09-07T09:40:52.062Z,4.81
2022-09-07T09:41:53.024Z,6.60
2022-09-07T09:42:49.032Z,5.11
2022-09-07T09:44:08.033Z,4.89
2022-09-07T09:45:02.010Z,5.61
2022-09-07T09:46:17.439Z,4.82
2022-09-07T09:48:35.020Z,4.81
2022-09-07T09:49:39.001Z,5.79
2022-09-07T09:53:00.069Z,5.86
2022-09-07T09:54:00.032Z,7.19
2022-09-07T09:54:47.287Z,5.66
2022-09-07T09:55:36.291Z,4.43
2022-09-07T09:56:17.106Z,5.16
2022-09-07T09:56:59.006Z,4.93
2022-09-07T09:59:05.780Z,4.29
2022-09-07T10:00:14.883Z,4.96
2022-09-07T10:01:23.199Z,4.79
2022-09-07T10:04:42.013Z,4.01
2022-09-07T10:05:42.089Z,4.95
2022-09-07T10:06:24.990Z,5.36
2022-09-07T10:07:28.137Z,5.28
2022-09-07T10:08:09.037Z,4.59
2022-09-07T10:09:08.075Z,4.47
2022-09-07T10:09:53.993Z,3.51
2022-09-07T10:10:35.073Z,4.50
2022-09-07T10:11:17.019Z,5.79
2022-09-07T10:12:06.711Z,4.93
2022-09-07T10:12:48.992Z,5.49
2022-09-07T10:13:39.065Z,5.41
2022-09-07T10:14:32.132Z,4.82
2022-09-07T10:15:07.742Z,3.86
2022-09-07T10:15:49.082Z,5.29
2022-09-07T10:16:23.161Z,4.91
2022-09-07T10:16:58.792Z,4.64
2022-09-07T10:17:53.978Z,5.26
2022-09-07T10:18:51.022Z,6.13
2022-09-07T10:19:30.781Z,6.07
2022-09-07T10:20:43.997Z,5.66
2022-09-07T10:21:33.189Z,4.47
2022-09-07T10:22:51.491Z,4.40
2022-09-07T10:23:27.872Z,4.46
2022-09-07T10:24:21.019Z,4.21
2022-09-07T10:24:54.907Z,3.67
2022-09-07T10:25:50.961Z,2.65
2022-09-07T10:26:34.791Z,3.83
2022-09-07T10:27:53.053Z,5.20
2022-09-07T10:29:06.563Z,5.29
2022-09-07T10:29:45.016Z,3.80
2022-09-07T10:30:19.833Z,3.89
2022-09-07T10:32:12.971Z,4.50
2022-09-07T10:33:09.117Z,5.57
2022-09-07T10:34:38.986Z,7.16
2022-09-07T10:35:40.001Z,6.68
2022-09-07T10:36:49.214Z,5.35
2022-09-07T10:37:58.974Z,5.84
2022-09-07T10:39:01.149Z,5.96
2022-09-07T10:39:44.046Z,4.97
2022-09-07T10:40:58.008Z,6.04
2022-09-07T10:41:43.622Z,5.74
2022-09-07T10:43:20.669Z,4.89
2022-09-07T10:43:50.381Z,6.04
2022-09-07T10:45:27.988Z,6.13
2022-09-07T10:46:12.400Z,4.78
2022-09-07T10:47:10.150Z,4.30
2022-09-07T10:48:09.017Z,3.66
2022-09-07T10:49:15.062Z,5.11
2022-09-07T10:50:23.296Z,4.59
2022-09-07T10:51:14.270Z,4.24
2022-09-07T10:52:23.981Z,4.01
2022-09-07T10:54:29.513Z,3.85
2022-09-07T10:54:43.957Z,5.21
2022-09-07T10:55:39.036Z,5.51
2022-09-07T10:56:48.084Z,3.91
2022-09-07T10:58:01.053Z,3.61
2022-09-07T10:59:02.274Z,3.53
2022-09-07T11:00:21.957Z,4.04
2022-09-07T11:00:55.880Z,5.26
2022-09-07T11:02:09.949Z,6.76
2022-09-07T11:03:27.353Z,4.74
2022-09-07T11:04:47.444Z,6.16
2022-09-07T11:05:42.873Z,4.70
2022-09-07T11:06:45.948Z,4.09
2022-09-07T11:07:46.035Z,5.26
2022-09-07T11:09:16.470Z,5.29
2022-09-07T11:10:32.096Z,5.51
2022-09-07T11:12:45.232Z,4.68
2022-09-07T11:13:30.972Z,5.51
2022-09-07T11:14:31.978Z,5.65
2022-09-07T11:15:17.805Z,3.61
2022-09-07T11:17:22.068Z,6.00
2022-09-07T11:18:39.978Z,5.76
2022-09-07T11:19:45.997Z,6.94
2022-09-07T11:20:58.922Z,6.50
2022-09-07T11:21:58.943Z,5.63
2022-09-07T11:22:44.131Z,5.70
2022-09-07T11:23:56.934Z,5.86
2022-09-07T11:26:13.160Z,5.01
2022-09-07T11:27:25.938Z,5.30
2022-09-07T11:28:23.099Z,5.47
2022-09-07T11:29:44.949Z,5.47
2022-09-07T11:30:30.101Z,5.05
2022-09-07T11:31:39.178Z,4.82
2022-09-07T11:32:42.942Z,4.99